Thursday, February 22, 2018, 12:03 PM EST
Back to Local

KWVL, Waterville, Waterville Robert Lafleur Airport

Location: Waterville, ME, United States Lat: 44.533
Local Time: 12:03 PM EST (17:03 GMT) Lon: -69.683
Time Zone: US/Eastern Elev: 334 ft

Show me the last for .
Show Decoded

2018-02-22 10:56 METAR KWVL 221556Z AUTO 02007KT 10SM CLR 00/M11 A3061 RMK AO2 SLP399 T00001106
                 FZRANO =
2018-02-22 09:56 METAR KWVL 221456Z AUTO 02007KT 10SM FEW120 M01/M11 A3063 RMK AO2 SLP403
                 T10061106 53015 FZRANO =
2018-02-22 08:56 METAR KWVL 221356Z AUTO 03004KT 10SM FEW120 M01/M11 A3060 RMK AO2 SLP395
                 T10111111 FZRANO =
2018-02-22 07:56 METAR KWVL 221256Z AUTO 03010KT 10SM CLR M01/M11 A3060 RMK AO2 SLP392 T10111106
                 FZRANO =
2018-02-22 06:56 METAR KWVL 221156Z AUTO 02005KT 10SM CLR M01/M09 A3058 RMK AO2 SLP389 6////
                 7//// T10111094 10028 21011 53024 FZRANO =
2018-02-22 05:56 METAR KWVL 221056Z AUTO 35008KT 10SM CLR M01/M11 A3055 RMK AO2 SLP377 T10061106
                 FZRANO =
2018-02-22 04:56 METAR KWVL 220956Z AUTO 34005KT 10SM CLR M01/M11 A3053 RMK AO2 SLP371 T10061106
                 FZRANO =
2018-02-22 03:56 METAR KWVL 220856Z AUTO 34010KT 10SM CLR 00/M11 A3052 RMK AO2 SLP365 6////
                 T00001106 52030 FZRANO =
2018-02-22 02:56 METAR KWVL 220756Z AUTO 34005KT 10SM CLR 01/M07 A3048 RMK AO2 SLP353 T00061067
                 FZRANO =
2018-02-22 01:56 METAR KWVL 220656Z AUTO 36008KT 10SM CLR 02/M06 A3046 RMK AO2 SLP346 T00171061
                 FZRANO =
2018-02-22 00:56 METAR KWVL 220556Z AUTO 33007KT 10SM CLR 03/M07 A3043 RMK AO2 SLP334 T00281067
                 10117 20028 51052 =
2018-02-21 23:56 METAR KWVL 220456Z AUTO 35007KT 10SM CLR 04/M04 A3038 RMK AO2 SLP317 T00391044
                 401500017 =
2018-02-21 22:56 METAR KWVL 220356Z AUTO 34008KT 10SM CLR 06/M03 A3033 RMK AO2 SLP302 T00561028 =
2018-02-21 21:56 METAR KWVL 220256Z AUTO 33011KT 10SM FEW040 OVC100 07/M03 A3027 RMK AO2 SLP281
                 T00721028 51047 =
2018-02-21 20:56 METAR KWVL 220156Z AUTO 30008G15KT 270V350 10SM OVC090 09/01 A3023 RMK AO2
                 SLP268 T00890011 =
2018-02-21 19:56 METAR KWVL 220056Z AUTO 27010G14KT 250V320 10SM CLR 10/03 A3018 RMK AO2 SLP248
                 T01000028 =
2018-02-21 18:56 METAR KWVL 212356Z AUTO 28014G18KT 10SM OVC080 12/03 A3013 RMK AO2 PK WND
                 28029/2322 SLP232 T01170033 10150 20061 51065 =
2018-02-21 17:56 METAR KWVL 212256Z AUTO 30018G27KT 10SM OVC060 13/07 A3008 RMK AO2 PK WND
                 31027/2253 SLP216 T01330072 =
2018-02-21 16:56 METAR KWVL 212156Z AUTO 31013G18KT 10SM FEW040 BKN060 OVC080 14/09 A3002 RMK AO2
                 WSHFT 2124 SLP194 T01440089 =
2018-02-21 16:44 METAR KWVL 212144Z AUTO 32015G20KT 10SM SCT050 BKN065 OVC090 14/09 A3001 RMK AO2
                 WSHFT 2124 =
2018-02-21 15:56 METAR KWVL 212056Z AUTO 22006KT 10SM CLR 10/07 A2994 RMK AO2 SLP168 T01000072
                 53003 =
2018-02-21 14:56 METAR KWVL 211956Z AUTO 21005KT 10SM CLR 10/07 A2993 RMK AO2 SLP164 T01000072 =
2018-02-21 13:56 METAR KWVL 211856Z AUTO 19006KT 10SM FEW003 08/07 A2993 RMK AO2 SLP164 T00780067
                 =
2018-02-21 13:52 METAR KWVL 211852Z AUTO 19008KT 10SM SCT003 08/07 A2993 RMK AO2 =
2018-02-21 13:27 METAR KWVL 211827Z AUTO 19007KT 6SM BR OVC003 07/06 A2994 RMK AO2 =
2018-02-21 13:07 METAR KWVL 211807Z AUTO 19008KT 2SM BR OVC003 06/06 A2994 RMK AO2 =
2018-02-21 12:56 METAR KWVL 211756Z AUTO 19006KT 5SM BR OVC003 06/06 A2996 RMK AO2 SLP175
                 T00610056 10061 20017 58031 =
2018-02-21 12:07 METAR KWVL 211707Z AUTO 21005KT 3SM BR OVC003 05/05 A3000 RMK AO2 =

Support USWX by starting your Amazon purchase here.